Time;durP1;ratioP1;P1;durP2;ratioP2;P2;SDS_P1;SDS_P2;PMS_P1;PMS_P2;Temp;Humidity;BMP_temperature;BMP_pressure;BME280_temperature;BME280_humidity;BME280_pressure;Samples;Min_cycle;Max_cycle;Signal;HPM_P1;HPM_P2
2024/01/12 00:01:45;;;;;;;;;;;;;;;;;;5094294;28;19924;-68
2024/01/12 00:04:12;;;;;;;;;;;;;;;;;;5092759;28;20006;-67
2024/01/12 00:06:39;;;;;;;;;;;;;;;;;;5093738;28;19924;-68
2024/01/12 00:09:06;;;;;;;;;;;;;;;;;;5083782;28;20033;-67
2024/01/12 00:11:33;;;;;;;;;;;;;;;;;;5094541;28;19928;-67
2024/01/12 00:14:01;;;;;;;;;;;;;;;;;;5092666;28;19932;-68
2024/01/12 00:16:28;;;;;;;;;;;;;;;;;;5093943;28;19931;-68
2024/01/12 00:18:55;;;;;;;;;;;;;;;;;;5093042;28;20378;-67
2024/01/12 00:21:22;;;;;;;;;;;;;;;;;;5093838;28;19924;-68
2024/01/12 00:23:49;;;;;;;;;;;;;;;;;;5083602;28;19969;-67
2024/01/12 00:26:16;;;;;;;;;;;;;;;;;;5072991;28;19963;-67
2024/01/12 00:28:43;;;;;;;;;;;;;;;;;;5072403;28;19925;-68
2024/01/12 00:31:10;;;;;;;;;;;;;;;;;;5073027;28;20096;-68
2024/01/12 00:33:37;;;;;;;;;;;;;;;;;;5073503;28;19925;-68
2024/01/12 00:36:05;;;;;;;;;;;;;;;;;;5091274;28;19947;-68
2024/01/12 00:38:32;;;;;;;;;;;;;;;;;;5093650;28;19924;-68
2024/01/12 00:40:59;;;;;;;;;;;;;;;;;;5092926;28;19977;-68
2024/01/12 00:43:26;;;;;;;;;;;;;;;;;;5078760;28;19978;-68
2024/01/12 00:45:53;;;;;;;;;;;;;;;;;;5092708;28;19924;-68
2024/01/12 00:48:20;;;;;;;;;;;;;;;;;;5093500;28;19927;-68
2024/01/12 00:50:47;;;;;;;;;;;;;;;;;;5092655;28;19927;-68
2024/01/12 00:53:14;;;;;;;;;;;;;;;;;;5093126;28;19931;-68
2024/01/12 00:55:41;;;;;;;;;;;;;;;;;;5091956;28;19924;-68
2024/01/12 00:58:08;;;;;;;;;;;;;;;;;;5093543;28;19928;-68
2024/01/12 01:00:36;;;;;;;;;;;;;;;;;;5090927;28;19924;-68
2024/01/12 01:03:03;;;;;;;;;;;;;;;;;;5092798;28;19924;-68
2024/01/12 01:05:30;;;;;;;;;;;;;;;;;;5092098;28;19924;-68
2024/01/12 01:07:57;;;;;;;;;;;;;;;;;;5092729;28;19924;-68
2024/01/12 01:10:24;;;;;;;;;;;;;;;;;;5091675;28;19932;-68
2024/01/12 01:12:51;;;;;;;;;;;;;;;;;;5092927;28;20333;-69
2024/01/12 01:15:19;;;;;;;;;;;;;;;;;;5091082;28;19951;-69
2024/01/12 01:17:47;;;;;;;;;;;;;;;;;;5089433;28;19924;-68
2024/01/12 01:20:16;;;;;;;;;;;;;;;;;;5092024;28;19924;-68
2024/01/12 01:22:43;;;;;;;;;;;;;;;;;;5083898;28;20303;-68
2024/01/12 01:25:10;;;;;;;;;;;;;;;;;;5078625;28;20379;-68
2024/01/12 01:27:36;;;;;;;;;;;;;;;;;;5092322;28;19947;-69
2024/01/12 01:30:04;;;;;;;;;;;;;;;;;;5091118;28;19924;-68
2024/01/12 01:32:31;;;;;;;;;;;;;;;;;;5088008;28;20462;-68
2024/01/12 01:34:58;;;;;;;;;;;;;;;;;;5077640;28;19977;-68
2024/01/12 01:37:25;;;;;;;;;;;;;;;;;;5092688;28;19924;-68
2024/01/12 01:39:52;;;;;;;;;;;;;;;;;;5084079;28;19977;-68
2024/01/12 01:42:19;;;;;;;;;;;;;;;;;;5089670;28;19927;-68
2024/01/12 01:44:46;;;;;;;;;;;;;;;;;;5086102;28;19977;-67
2024/01/12 01:47:13;;;;;;;;;;;;;;;;;;5084721;28;20383;-67
2024/01/12 01:49:40;;;;;;;;;;;;;;;;;;5089017;28;19984;-67
2024/01/12 01:52:07;;;;;;;;;;;;;;;;;;5071858;28;19924;-67
2024/01/12 01:54:35;;;;;;;;;;;;;;;;;;5072035;28;19931;-67
2024/01/12 01:57:02;;;;;;;;;;;;;;;;;;5089704;28;19993;-67
2024/01/12 01:59:29;;;;;;;;;;;;;;;;;;5091820;28;19967;-67
2024/01/12 02:01:56;;;;;;;;;;;;;;;;;;5091204;28;20396;-67
2024/01/12 02:04:23;;;;;;;;;;;;;;;;;;5091843;28;19924;-67
2024/01/12 02:06:50;;;;;;;;;;;;;;;;;;5084341;28;19924;-67
2024/01/12 02:09:17;;;;;;;;;;;;;;;;;;5090311;28;19928;-67
2024/01/12 02:11:44;;;;;;;;;;;;;;;;;;5091002;28;20383;-67
2024/01/12 02:14:11;;;;;;;;;;;;;;;;;;5109959;28;19928;-66
2024/01/12 02:16:38;;;;;;;;;;;;;;;;;;5082039;28;19925;-66
2024/01/12 02:19:05;;;;;;;;;;;;;;;;;;5090639;28;19924;-67
2024/01/12 02:21:32;;;;;;;;;;;;;;;;;;5090275;28;20001;-66
2024/01/12 02:23:59;;;;;;;;;;;;;;;;;;5084959;28;20374;-66
2024/01/12 02:26:26;;;;;;;;;;;;;;;;;;5085890;28;19985;-66
2024/01/12 02:28:53;;;;;;;;;;;;;;;;;;5077813;28;19979;-67
2024/01/12 02:31:20;;;;;;;;;;;;;;;;;;5091408;28;19978;-67
2024/01/12 02:33:47;;;;;;;;;;;;;;;;;;5091118;28;19932;-67
2024/01/12 02:36:14;;;;;;;;;;;;;;;;;;5089513;28;19925;-67
2024/01/12 02:38:41;;;;;;;;;;;;;;;;;;5091054;28;19924;-67
2024/01/12 02:41:09;;;;;;;;;;;;;;;;;;5089876;28;19928;-67
2024/01/12 02:43:36;;;;;;;;;;;;;;;;;;5090611;28;19930;-67
2024/01/12 02:46:03;;;;;;;;;;;;;;;;;;5090773;28;20379;-67
2024/01/12 02:48:30;;;;;;;;;;;;;;;;;;5091197;28;19924;-67
2024/01/12 02:50:57;;;;;;;;;;;;;;;;;;5091002;28;19978;-67
2024/01/12 02:53:24;;;;;;;;;;;;;;;;;;5090700;28;19970;-68
2024/01/12 02:55:51;;;;;;;;;;;;;;;;;;5088612;28;19924;-67
2024/01/12 02:58:18;;;;;;;;;;;;;;;;;;5086187;28;19928;-67
2024/01/12 03:00:45;;;;;;;;;;;;;;;;;;5088931;28;19924;-68
2024/01/12 03:03:12;;;;;;;;;;;;;;;;;;5076082;28;20015;-67
2024/01/12 03:05:39;;;;;;;;;;;;;;;;;;5089488;28;20000;-67
2024/01/12 03:08:06;;;;;;;;;;;;;;;;;;5091111;28;20353;-68
2024/01/12 03:10:33;;;;;;;;;;;;;;;;;;5091886;28;19978;-67
2024/01/12 03:13:00;;;;;;;;;;;;;;;;;;5079486;28;19983;-68
2024/01/12 03:15:27;;;;;;;;;;;;;;;;;;5091274;28;20001;-67
2024/01/12 03:17:54;;;;;;;;;;;;;;;;;;5094297;28;19925;-67
2024/01/12 03:20:22;;;;;;;;;;;;;;;;;;5094145;28;19985;-68
2024/01/12 03:22:49;;;;;;;;;;;;;;;;;;5092855;28;19967;-67
2024/01/12 03:25:16;;;;;;;;;;;;;;;;;;5095113;28;19932;-68
2024/01/12 03:27:43;;;;;;;;;;;;;;;;;;5094491;28;19967;-67
2024/01/12 03:30:10;;;;;;;;;;;;;;;;;;5094466;28;20328;-67
2024/01/12 03:32:37;;;;;;;;;;;;;;;;;;5090008;28;19981;-67
2024/01/12 03:35:04;;;;;;;;;;;;;;;;;;5094371;28;20386;-67
2024/01/12 03:37:31;;;;;;;;;;;;;;;;;;5093961;28;20437;-67
2024/01/12 03:39:58;;;;;;;;;;;;;;;;;;5094044;28;19924;-66
2024/01/12 03:42:25;;;;;;;;;;;;;;;;;;5092830;28;19923;-67
2024/01/12 03:44:52;;;;;;;;;;;;;;;;;;5094253;28;19924;-66
2024/01/12 03:47:19;;;;;;;;;;;;;;;;;;5093553;28;19924;-67
2024/01/12 03:49:46;;;;;;;;;;;;;;;;;;5085104;28;19924;-67
2024/01/12 03:52:13;;;;;;;;;;;;;;;;;;5092871;28;19939;-67
2024/01/12 03:54:40;;;;;;;;;;;;;;;;;;5094147;28;19989;-67
2024/01/12 03:57:07;;;;;;;;;;;;;;;;;;5093782;28;19928;-67
2024/01/12 03:59:34;;;;;;;;;;;;;;;;;;5076904;28;19970;-67
2024/01/12 04:02:01;;;;;;;;;;;;;;;;;;5089923;28;20033;-67
2024/01/12 04:04:29;;;;;;;;;;;;;;;;;;5089116;28;19953;-67
2024/01/12 04:06:56;;;;;;;;;;;;;;;;;;5079379;28;20287;-67
2024/01/12 04:09:23;;;;;;;;;;;;;;;;;;5089047;28;20399;-67
2024/01/12 04:11:50;;;;;;;;;;;;;;;;;;5091757;28;19969;-67
2024/01/12 04:14:17;;;;;;;;;;;;;;;;;;5095758;28;19977;-68
2024/01/12 04:16:44;;;;;;;;;;;;;;;;;;5096858;28;19924;-68
2024/01/12 04:19:11;;;;;;;;;;;;;;;;;;5093882;28;20302;-67
2024/01/12 04:21:38;;;;;;;;;;;;;;;;;;5090126;28;19924;-68
2024/01/12 04:24:05;;;;;;;;;;;;;;;;;;5081918;28;19928;-67
2024/01/12 04:26:32;;;;;;;;;;;;;;;;;;5092434;28;19928;-69
2024/01/12 04:28:59;;;;;;;;;;;;;;;;;;5092681;28;19928;-68
2024/01/12 04:31:26;;;;;;;;;;;;;;;;;;5092711;28;19928;-67
2024/01/12 04:33:54;;;;;;;;;;;;;;;;;;5093074;28;19949;-67
2024/01/12 04:36:21;;;;;;;;;;;;;;;;;;5093143;28;19924;-67
2024/01/12 04:38:48;;;;;;;;;;;;;;;;;;5093512;28;19924;-67
2024/01/12 04:41:15;;;;;;;;;;;;;;;;;;5086252;28;19970;-68
2024/01/12 04:43:42;;;;;;;;;;;;;;;;;;5092945;28;19978;-68
2024/01/12 04:46:09;;;;;;;;;;;;;;;;;;5092980;28;20440;-68
2024/01/12 04:48:36;;;;;;;;;;;;;;;;;;5092927;28;19969;-68
2024/01/12 04:51:03;;;;;;;;;;;;;;;;;;5093049;28;19924;-67
2024/01/12 04:53:30;;;;;;;;;;;;;;;;;;5091846;28;19924;-68
2024/01/12 04:55:57;;;;;;;;;;;;;;;;;;5093222;28;19924;-67
2024/01/12 04:58:24;;;;;;;;;;;;;;;;;;5089968;28;20437;-67
2024/01/12 05:00:51;;;;;;;;;;;;;;;;;;5091202;28;20402;-68
2024/01/12 05:03:18;;;;;;;;;;;;;;;;;;5090800;28;19924;-68
2024/01/12 05:05:45;;;;;;;;;;;;;;;;;;5091393;28;19924;-67
2024/01/12 05:08:12;;;;;;;;;;;;;;;;;;5081672;28;20500;-67
2024/01/12 05:10:39;;;;;;;;;;;;;;;;;;5092363;28;19932;-68
2024/01/12 05:13:06;;;;;;;;;;;;;;;;;;5090315;28;19924;-68
2024/01/12 05:15:34;;;;;;;;;;;;;;;;;;5090725;28;20496;-67
2024/01/12 05:18:01;;;;;;;;;;;;;;;;;;5090235;28;19930;-67
2024/01/12 05:20:29;;;;;;;;;;;;;;;;;;5091552;28;19924;-68
2024/01/12 05:22:56;;;;;;;;;;;;;;;;;;5092136;28;19924;-68
2024/01/12 05:25:23;;;;;;;;;;;;;;;;;;5081892;28;19978;-68
2024/01/12 05:27:50;;;;;;;;;;;;;;;;;;5082855;28;19985;-68
2024/01/12 05:30:17;;;;;;;;;;;;;;;;;;5079761;28;19924;-68
2024/01/12 05:32:45;;;;;;;;;;;;;;;;;;5087948;28;19928;-66
2024/01/12 05:35:12;;;;;;;;;;;;;;;;;;5088292;28;19928;-68
2024/01/12 05:37:39;;;;;;;;;;;;;;;;;;5091796;28;19968;-68
2024/01/12 05:40:06;;;;;;;;;;;;;;;;;;5090726;28;20464;-68
2024/01/12 05:42:33;;;;;;;;;;;;;;;;;;5090037;28;19932;-68
2024/01/12 05:45:00;;;;;;;;;;;;;;;;;;5091969;28;19924;-68
2024/01/12 05:47:27;;;;;;;;;;;;;;;;;;5090201;28;19935;-67
2024/01/12 05:49:54;;;;;;;;;;;;;;;;;;5089202;28;19928;-66
2024/01/12 05:52:21;;;;;;;;;;;;;;;;;;5091207;28;19925;-67
2024/01/12 05:54:50;;;;;;;;;;;;;;;;;;5090880;28;19927;-67
2024/01/12 05:57:17;;;;;;;;;;;;;;;;;;5091247;28;20551;-67
2024/01/12 05:59:45;;;;;;;;;;;;;;;;;;5090015;28;19970;-67
2024/01/12 06:02:14;;;;;;;;;;;;;;;;;;5093254;28;20394;-67
2024/01/12 06:04:41;;;;;;;;;;;;;;;;;;5090028;28;19990;-67
2024/01/12 06:07:09;;;;;;;;;;;;;;;;;;5089560;28;19984;-67
2024/01/12 06:09:36;;;;;;;;;;;;;;;;;;5098438;28;20452;-67
2024/01/12 06:12:03;;;;;;;;;;;;;;;;;;5089985;28;19924;-66
2024/01/12 06:14:30;;;;;;;;;;;;;;;;;;5088121;28;19971;-67
2024/01/12 06:16:57;;;;;;;;;;;;;;;;;;5090939;28;19923;-68
2024/01/12 06:19:24;;;;;;;;;;;;;;;;;;5089535;28;19924;-68
2024/01/12 06:21:51;;;;;;;;;;;;;;;;;;5087681;28;20301;-67
2024/01/12 06:24:18;;;;;;;;;;;;;;;;;;5088139;28;20318;-67
2024/01/12 06:26:45;;;;;;;;;;;;;;;;;;5090514;28;19996;-67
2024/01/12 06:29:13;;;;;;;;;;;;;;;;;;5089256;28;19928;-67
2024/01/12 06:31:40;;;;;;;;;;;;;;;;;;5090735;28;19924;-67
2024/01/12 06:34:07;;;;;;;;;;;;;;;;;;5090094;28;19930;-67
2024/01/12 06:36:34;;;;;;;;;;;;;;;;;;5090616;28;19977;-67
2024/01/12 06:39:01;;;;;;;;;;;;;;;;;;5087662;28;20244;-67
2024/01/12 06:41:28;;;;;;;;;;;;;;;;;;5090412;28;21147;-67
2024/01/12 06:43:55;;;;;;;;;;;;;;;;;;5086197;28;20440;-67
2024/01/12 06:46:22;;;;;;;;;;;;;;;;;;5086674;28;19928;-67
2024/01/12 06:48:49;;;;;;;;;;;;;;;;;;5091335;28;19924;-67
2024/01/12 06:51:16;;;;;;;;;;;;;;;;;;5094582;28;20403;-67
2024/01/12 06:53:43;;;;;;;;;;;;;;;;;;5093786;28;20272;-67
2024/01/12 06:56:10;;;;;;;;;;;;;;;;;;5088070;28;20383;-67
2024/01/12 06:58:37;;;;;;;;;;;;;;;;;;5094007;28;20378;-68
2024/01/12 07:01:05;;;;;;;;;;;;;;;;;;5091617;28;19985;-66
2024/01/12 07:03:32;;;;;;;;;;;;;;;;;;5085380;28;19928;-65
2024/01/12 07:05:59;;;;;;;;;;;;;;;;;;5091288;28;20379;-65
2024/01/12 07:08:26;;;;;;;;;;;;;;;;;;5091609;28;19924;-66
2024/01/12 07:10:53;;;;;;;;;;;;;;;;;;5092751;28;20399;-67
2024/01/12 07:13:20;;;;;;;;;;;;;;;;;;5090729;28;19924;-66
2024/01/12 07:15:47;;;;;;;;;;;;;;;;;;5079981;28;19928;-66
2024/01/12 07:18:14;;;;;;;;;;;;;;;;;;5086276;28;19989;-67
2024/01/12 07:20:41;;;;;;;;;;;;;;;;;;5088146;28;19925;-65
2024/01/12 07:23:09;;;;;;;;;;;;;;;;;;5091750;28;19977;-65
2024/01/12 07:25:37;;;;;;;;;;;;;;;;;;5093174;28;19977;-65
2024/01/12 07:28:04;;;;;;;;;;;;;;;;;;5095651;22;19947;-65
2024/01/12 07:30:32;;;;;;;;;;;;;;;;;;5075626;28;19924;-65
2024/01/12 07:32:59;;;;;;;;;;;;;;;;;;5079030;28;19954;-66
2024/01/12 07:35:26;;;;;;;;;;;;;;;;;;5073751;28;19969;-66
2024/01/12 07:37:53;;;;;;;;;;;;;;;;;;5079411;28;19963;-66
2024/01/12 07:40:20;;;;;;;;;;;;;;;;;;5081708;28;19983;-66
2024/01/12 07:42:47;;;;;;;;;;;;;;;;;;5090879;28;20536;-66
2024/01/12 07:45:14;;;;;;;;;;;;;;;;;;5107870;28;19960;-66
2024/01/12 07:47:41;;;;;;;;;;;;;;;;;;5100328;28;19928;-66
2024/01/12 07:50:08;;;;;;;;;;;;;;;;;;5095991;28;19982;-66
2024/01/12 07:52:35;;;;;;;;;;;;;;;;;;5102665;28;19993;-66
2024/01/12 07:55:02;;;;;;;;;;;;;;;;;;5091730;28;20366;-66
2024/01/12 07:57:29;;;;;;;;;;;;;;;;;;5083767;28;19954;-66
2024/01/12 07:59:57;;;;;;;;;;;;;;;;;;5079503;28;19932;-66
2024/01/12 08:02:24;;;;;;;;;;;;;;;;;;5084390;28;19924;-66
2024/01/12 08:04:50;;;;;;;;;;;;;;;;;;5083344;28;19982;-66
2024/01/12 08:07:17;;;;;;;;;;;;;;;;;;5081852;28;19924;-67
2024/01/12 08:09:44;;;;;;;;;;;;;;;;;;5090369;28;19993;-66
2024/01/12 08:12:11;;;;;;;;;;;;;;;;;;5086119;28;19969;-66
2024/01/12 08:14:38;;;;;;;;;;;;;;;;;;5081500;28;20012;-66
2024/01/12 08:17:05;;;;;;;;;;;;;;;;;;5081353;28;19924;-66
2024/01/12 08:19:33;;;;;;;;;;;;;;;;;;5087200;28;20096;-67
2024/01/12 08:22:00;;;;;;;;;;;;;;;;;;5087113;28;19967;-67
2024/01/12 08:24:27;;;;;;;;;;;;;;;;;;5092972;28;19924;-67
2024/01/12 08:26:54;;;;;;;;;;;;;;;;;;5088736;28;19961;-66
2024/01/12 08:29:21;;;;;;;;;;;;;;;;;;5085758;28;19961;-67
2024/01/12 08:31:51;;;;;;;;;;;;;;;;;;5086231;28;19932;-66
2024/01/12 08:34:18;;;;;;;;;;;;;;;;;;5076564;22;19931;-66
2024/01/12 08:36:45;;;;;;;;;;;;;;;;;;5062182;28;20421;-66
2024/01/12 08:39:12;;;;;;;;;;;;;;;;;;5069091;28;20388;-67
2024/01/12 08:41:39;;;;;;;;;;;;;;;;;;5060570;28;20015;-65
2024/01/12 08:44:06;;;;;;;;;;;;;;;;;;5068276;28;19986;-67
2024/01/12 08:46:33;;;;;;;;;;;;;;;;;;5062664;28;19925;-68
2024/01/12 08:49:00;;;;;;;;;;;;;;;;;;5062335;28;19989;-66
2024/01/12 08:51:27;;;;;;;;;;;;;;;;;;5060406;28;19924;-66
2024/01/12 08:53:55;;;;;;;;;;;;;;;;;;5063718;28;19933;-67
2024/01/12 08:56:22;;;;;;;;;;;;;;;;;;5063152;28;20049;-67
2024/01/12 08:58:49;;;;;;;;;;;;;;;;;;5071005;28;19985;-66
2024/01/12 09:01:18;;;;;;;;;;;;;;;;;;5064915;28;19924;-67
2024/01/12 09:03:45;;;;;;;;;;;;;;;;;;5072294;28;19935;-67
2024/01/12 09:06:12;;;;;;;;;;;;;;;;;;5070507;28;19978;-68
2024/01/12 09:08:39;;;;;;;;;;;;;;;;;;5063627;28;19963;-66
2024/01/12 09:11:06;;;;;;;;;;;;;;;;;;5063685;28;19978;-65
2024/01/12 09:13:33;;;;;;;;;;;;;;;;;;5067903;28;19925;-65
2024/01/12 09:16:00;;;;;;;;;;;;;;;;;;5067862;28;19925;-66
2024/01/12 09:18:27;;;;;;;;;;;;;;;;;;5071339;28;19931;-66
2024/01/12 09:20:54;;;;;;;;;;;;;;;;;;5069475;28;19925;-67
2024/01/12 09:23:21;;;;;;;;;;;;;;;;;;5061782;28;20427;-66
2024/01/12 09:25:49;;;;;;;;;;;;;;;;;;5068258;28;19932;-67
2024/01/12 09:28:16;;;;;;;;;;;;;;;;;;5067616;28;20346;-67
2024/01/12 09:30:44;;;;;;;;;;;;;;;;;;5066730;28;19968;-67
2024/01/12 09:33:11;;;;;;;;;;;;;;;;;;5063507;28;19925;-67
2024/01/12 09:35:38;;;;;;;;;;;;;;;;;;5043387;28;19990;-66
2024/01/12 09:38:05;;;;;;;;;;;;;;;;;;5042361;28;20444;-66
2024/01/12 09:40:32;;;;;;;;;;;;;;;;;;5049687;28;19924;-66
2024/01/12 09:43:00;;;;;;;;;;;;;;;;;;5044043;28;19979;-66
2024/01/12 09:45:27;;;;;;;;;;;;;;;;;;5049373;28;19924;-66
2024/01/12 09:47:54;;;;;;;;;;;;;;;;;;5044931;28;19968;-67
2024/01/12 09:50:21;;;;;;;;;;;;;;;;;;5042729;28;19925;-66
2024/01/12 09:52:48;;;;;;;;;;;;;;;;;;5043781;28;19925;-66
2024/01/12 09:55:15;;;;;;;;;;;;;;;;;;5048649;28;19974;-67
2024/01/12 09:57:45;;;;;;;;;;;;;;;;;;5045347;28;19944;-68
2024/01/12 10:00:12;;;;;;;;;;;;;;;;;;5045992;28;19929;-66
2024/01/12 10:02:39;;;;;;;;;;;;;;;;;;5047583;28;19925;-66
2024/01/12 10:05:06;;;;;;;;;;;;;;;;;;5048728;28;19924;-66
2024/01/12 10:07:33;;;;;;;;;;;;;;;;;;5044823;28;19929;-67
2024/01/12 10:10:00;;;;;;;;;;;;;;;;;;5048083;28;20133;-67
2024/01/12 10:12:28;;;;;;;;;;;;;;;;;;5046522;28;20368;-67
2024/01/12 10:14:55;;;;;;;;;;;;;;;;;;5050035;28;19925;-67
2024/01/12 10:17:22;;;;;;;;;;;;;;;;;;5042009;28;20307;-68
2024/01/12 10:19:49;;;;;;;;;;;;;;;;;;5043088;28;19979;-68
2024/01/12 10:22:16;;;;;;;;;;;;;;;;;;5053856;28;20012;-67
2024/01/12 10:24:43;;;;;;;;;;;;;;;;;;5053553;28;19958;-66
2024/01/12 10:27:10;;;;;;;;;;;;;;;;;;5046993;28;19978;-67
2024/01/12 10:29:38;;;;;;;;;;;;;;;;;;5049066;28;19929;-66
2024/01/12 10:32:05;;;;;;;;;;;;;;;;;;5050476;28;19939;-66
2024/01/12 10:34:33;;;;;;;;;;;;;;;;;;5048616;28;20100;-65
2024/01/12 10:37:00;;;;;;;;;;;;;;;;;;5052383;28;19933;-66
2024/01/12 10:39:27;;;;;;;;;;;;;;;;;;5048508;28;19933;-65
2024/01/12 10:41:55;;;;;;;;;;;;;;;;;;5047216;28;19925;-64
2024/01/12 10:44:22;;;;;;;;;;;;;;;;;;5048130;28;20024;-64
2024/01/12 10:46:50;;;;;;;;;;;;;;;;;;5052192;28;20059;-65
2024/01/12 10:49:17;;;;;;;;;;;;;;;;;;5043437;28;20479;-64
2024/01/12 10:51:44;;;;;;;;;;;;;;;;;;5054044;28;19924;-64
2024/01/12 10:54:11;;;;;;;;;;;;;;;;;;5048662;28;19924;-65
2024/01/12 10:56:38;;;;;;;;;;;;;;;;;;5043354;28;20033;-64
2024/01/12 10:59:05;;;;;;;;;;;;;;;;;;5043616;28;20030;-64
2024/01/12 11:01:32;;;;;;;;;;;;;;;;;;5051432;28;20010;-64
2024/01/12 11:03:59;;;;;;;;;;;;;;;;;;5051050;28;20392;-65
2024/01/12 11:06:27;;;;;;;;;;;;;;;;;;5047760;28;19924;-64
2024/01/12 11:08:54;;;;;;;;;;;;;;;;;;5049707;28;19925;-65
2024/01/12 11:11:22;;;;;;;;;;;;;;;;;;5057116;28;19931;-64
2024/01/12 11:13:49;;;;;;;;;;;;;;;;;;5050680;28;20426;-65
2024/01/12 11:16:16;;;;;;;;;;;;;;;;;;5047899;28;19925;-66
2024/01/12 11:18:43;;;;;;;;;;;;;;;;;;5051933;28;19975;-66
2024/01/12 11:21:10;;;;;;;;;;;;;;;;;;5047406;28;19983;-66
2024/01/12 11:23:37;;;;;;;;;;;;;;;;;;5042077;28;20008;-66
2024/01/12 11:26:04;;;;;;;;;;;;;;;;;;5052187;28;20341;-66
2024/01/12 11:28:31;;;;;;;;;;;;;;;;;;5044802;28;20373;-66
2024/01/12 11:30:58;;;;;;;;;;;;;;;;;;5049390;28;20330;-66
2024/01/12 11:33:25;;;;;;;;;;;;;;;;;;5050835;28;20284;-66
2024/01/12 11:35:52;;;;;;;;;;;;;;;;;;5049853;28;20384;-66
2024/01/12 11:38:19;;;;;;;;;;;;;;;;;;5051169;28;19979;-67
2024/01/12 11:40:48;;;;;;;;;;;;;;;;;;5042593;28;19971;-65
2024/01/12 11:43:15;;;;;;;;;;;;;;;;;;5040929;28;19940;-66
2024/01/12 11:45:42;;;;;;;;;;;;;;;;;;5049118;28;19925;-66
2024/01/12 11:48:09;;;;;;;;;;;;;;;;;;5048105;28;19983;-67
2024/01/12 11:50:36;;;;;;;;;;;;;;;;;;5045751;28;20318;-67
2024/01/12 11:53:03;;;;;;;;;;;;;;;;;;5046938;28;20343;-66
2024/01/12 11:55:32;;;;;;;;;;;;;;;;;;5047210;28;19967;-66
2024/01/12 11:57:59;;;;;;;;;;;;;;;;;;5042816;28;19933;-66
2024/01/12 12:00:26;;;;;;;;;;;;;;;;;;5046336;28;19925;-66
2024/01/12 12:02:53;;;;;;;;;;;;;;;;;;5047600;28;19925;-66
2024/01/12 12:05:20;;;;;;;;;;;;;;;;;;5046908;28;19956;-66
2024/01/12 12:07:47;;;;;;;;;;;;;;;;;;5050695;28;19924;-66
2024/01/12 12:10:14;;;;;;;;;;;;;;;;;;5047073;28;19929;-66
2024/01/12 12:12:41;;;;;;;;;;;;;;;;;;5050281;28;20030;-67
2024/01/12 12:15:08;;;;;;;;;;;;;;;;;;5043869;28;19929;-66
2024/01/12 12:17:35;;;;;;;;;;;;;;;;;;5046648;28;19979;-67
2024/01/12 12:20:03;;;;;;;;;;;;;;;;;;5046464;28;19924;-67
2024/01/12 12:22:30;;;;;;;;;;;;;;;;;;5044937;28;19978;-66
2024/01/12 12:24:57;;;;;;;;;;;;;;;;;;5044957;28;19979;-67
2024/01/12 12:27:24;;;;;;;;;;;;;;;;;;5052016;28;20360;-68
2024/01/12 12:29:51;;;;;;;;;;;;;;;;;;5047603;28;20388;-67
2024/01/12 12:32:18;;;;;;;;;;;;;;;;;;5046107;28;19960;-67
2024/01/12 12:34:45;;;;;;;;;;;;;;;;;;5045229;28;19940;-67
2024/01/12 12:37:13;;;;;;;;;;;;;;;;;;5050022;28;19979;-68
2024/01/12 12:39:40;;;;;;;;;;;;;;;;;;5049383;28;19956;-67
2024/01/12 12:42:08;;;;;;;;;;;;;;;;;;5046625;28;20450;-67
2024/01/12 12:44:35;;;;;;;;;;;;;;;;;;5042643;28;20107;-68
2024/01/12 12:47:02;;;;;;;;;;;;;;;;;;5049547;28;19990;-66
2024/01/12 12:49:29;;;;;;;;;;;;;;;;;;5046252;28;19936;-67
2024/01/12 12:51:56;;;;;;;;;;;;;;;;;;5050544;28;19947;-67
2024/01/12 12:54:23;;;;;;;;;;;;;;;;;;5049349;28;19971;-67
2024/01/12 12:56:52;;;;;;;;;;;;;;;;;;5045147;28;19952;-67
2024/01/12 12:59:19;;;;;;;;;;;;;;;;;;5049166;28;19929;-67
2024/01/12 13:01:46;;;;;;;;;;;;;;;;;;5052928;28;19929;-65
2024/01/12 13:04:13;;;;;;;;;;;;;;;;;;5046665;28;20450;-68
2024/01/12 13:06:40;;;;;;;;;;;;;;;;;;5047553;28;20376;-67
2024/01/12 13:09:08;;;;;;;;;;;;;;;;;;5048631;28;20406;-67
2024/01/12 13:11:35;;;;;;;;;;;;;;;;;;5043734;28;19960;-69
2024/01/12 13:14:04;;;;;;;;;;;;;;;;;;5049833;28;19924;-70
2024/01/12 13:16:31;;;;;;;;;;;;;;;;;;5052523;28;19960;-69
2024/01/12 13:18:58;;;;;;;;;;;;;;;;;;5047828;28;20390;-69
2024/01/12 13:21:25;;;;;;;;;;;;;;;;;;5049733;28;19924;-70
2024/01/12 13:23:52;;;;;;;;;;;;;;;;;;5049151;28;20369;-69
2024/01/12 13:26:21;;;;;;;;;;;;;;;;;;5044520;28;19972;-70
2024/01/12 13:28:49;;;;;;;;;;;;;;;;;;5045024;28;19925;-70
2024/01/12 13:31:16;;;;;;;;;;;;;;;;;;5047755;28;19971;-69
2024/01/12 13:33:43;;;;;;;;;;;;;;;;;;5048548;28;19994;-69
2024/01/12 13:36:10;;;;;;;;;;;;;;;;;;5047249;28;19986;-70
2024/01/12 13:38:37;;;;;;;;;;;;;;;;;;5046687;28;19936;-70
2024/01/12 13:41:04;;;;;;;;;;;;;;;;;;5046198;28;19925;-69
2024/01/12 13:43:31;;;;;;;;;;;;;;;;;;5042733;28;19971;-69
2024/01/12 13:45:59;;;;;;;;;;;;;;;;;;5048602;28;19936;-69
2024/01/12 13:48:27;;;;;;;;;;;;;;;;;;5050547;28;19925;-68
2024/01/12 13:50:54;;;;;;;;;;;;;;;;;;5050662;28;19944;-66
2024/01/12 13:53:21;;;;;;;;;;;;;;;;;;5048730;28;19979;-67
2024/01/12 13:55:50;;;;;;;;;;;;;;;;;;5053319;28;20441;-67
2024/01/12 13:58:17;;;;;;;;;;;;;;;;;;5045203;28;19975;-66
2024/01/12 14:00:44;;;;;;;;;;;;;;;;;;5044378;28;19979;-66
2024/01/12 14:03:11;;;;;;;;;;;;;;;;;;5048853;28;20261;-67
2024/01/12 14:05:38;;;;;;;;;;;;;;;;;;5042528;28;20350;-66
2024/01/12 14:08:07;;;;;;;;;;;;;;;;;;5048709;28;20443;-67
2024/01/12 14:10:36;;;;;;;;;;;;;;;;;;5047980;28;19924;-66
2024/01/12 14:13:03;;;;;;;;;;;;;;;;;;5048183;28;20149;-67
2024/01/12 14:15:30;;;;;;;;;;;;;;;;;;5055527;28;19932;-67
2024/01/12 14:17:57;;;;;;;;;;;;;;;;;;5045444;28;20449;-68
2024/01/12 14:20:24;;;;;;;;;;;;;;;;;;5045935;28;20362;-68
2024/01/12 14:22:51;;;;;;;;;;;;;;;;;;5045315;28;19928;-68
2024/01/12 14:25:18;;;;;;;;;;;;;;;;;;5049888;28;19953;-68
2024/01/12 14:27:46;;;;;;;;;;;;;;;;;;5048120;28;19932;-68
2024/01/12 14:30:13;;;;;;;;;;;;;;;;;;5048749;28;19969;-67
2024/01/12 14:32:40;;;;;;;;;;;;;;;;;;5048101;28;19937;-68
2024/01/12 14:35:08;;;;;;;;;;;;;;;;;;5051405;28;19937;-67
2024/01/12 14:37:35;;;;;;;;;;;;;;;;;;5044057;28;20012;-68
2024/01/12 14:40:02;;;;;;;;;;;;;;;;;;5049515;28;20291;-67
2024/01/12 14:42:29;;;;;;;;;;;;;;;;;;5045819;28;19944;-66
2024/01/12 14:44:56;;;;;;;;;;;;;;;;;;5048842;28;19978;-67
2024/01/12 14:47:23;;;;;;;;;;;;;;;;;;5046832;28;19978;-67
2024/01/12 14:49:50;;;;;;;;;;;;;;;;;;5046033;28;19972;-66
2024/01/12 14:52:17;;;;;;;;;;;;;;;;;;5056637;28;19964;-68
2024/01/12 14:54:44;;;;;;;;;;;;;;;;;;5049915;28;19986;-67
2024/01/12 14:57:12;;;;;;;;;;;;;;;;;;5048287;28;19978;-68
2024/01/12 14:59:39;;;;;;;;;;;;;;;;;;5042917;28;19955;-70
2024/01/12 15:02:07;;;;;;;;;;;;;;;;;;5045427;28;19993;-69
2024/01/12 15:04:34;;;;;;;;;;;;;;;;;;5045549;28;20403;-68
2024/01/12 15:07:01;;;;;;;;;;;;;;;;;;5046099;28;20423;-68
2024/01/12 15:09:28;;;;;;;;;;;;;;;;;;5048049;28;19925;-68
2024/01/12 15:11:56;;;;;;;;;;;;;;;;;;5052743;28;20014;-69
2024/01/12 15:14:23;;;;;;;;;;;;;;;;;;5052606;28;19947;-65
2024/01/12 15:16:50;;;;;;;;;;;;;;;;;;5049156;28;20001;-68
2024/01/12 15:19:18;;;;;;;;;;;;;;;;;;5053352;28;19990;-67
2024/01/12 15:21:45;;;;;;;;;;;;;;;;;;5051371;28;20380;-67
2024/01/12 15:24:12;;;;;;;;;;;;;;;;;;5053117;28;19924;-67
2024/01/12 15:26:39;;;;;;;;;;;;;;;;;;5051784;28;19935;-67
2024/01/12 15:29:06;;;;;;;;;;;;;;;;;;5046011;28;19979;-67
2024/01/12 15:31:33;;;;;;;;;;;;;;;;;;5037463;28;20016;-68
2024/01/12 15:34:00;;;;;;;;;;;;;;;;;;5042937;28;19925;-67
2024/01/12 15:36:27;;;;;;;;;;;;;;;;;;5048478;28;20407;-68
2024/01/12 15:38:54;;;;;;;;;;;;;;;;;;5053012;28;20342;-68
2024/01/12 15:41:22;;;;;;;;;;;;;;;;;;5049384;28;19982;-68
2024/01/12 15:43:49;;;;;;;;;;;;;;;;;;5049254;28;19924;-68
2024/01/12 15:46:16;;;;;;;;;;;;;;;;;;5049307;28;19925;-68
2024/01/12 15:48:43;;;;;;;;;;;;;;;;;;5043816;28;20391;-67
2024/01/12 15:51:10;;;;;;;;;;;;;;;;;;5053487;28;19924;-68
2024/01/12 15:53:37;;;;;;;;;;;;;;;;;;5050900;28;20014;-68
2024/01/12 15:56:05;;;;;;;;;;;;;;;;;;5047112;28;19987;-67
2024/01/12 15:58:32;;;;;;;;;;;;;;;;;;5055269;28;19932;-67
2024/01/12 16:00:59;;;;;;;;;;;;;;;;;;5053764;28;20320;-67
2024/01/12 16:03:27;;;;;;;;;;;;;;;;;;5049935;28;20402;-67
2024/01/12 16:05:54;;;;;;;;;;;;;;;;;;5050346;28;19940;-68
2024/01/12 16:08:21;;;;;;;;;;;;;;;;;;5049411;28;19925;-69
2024/01/12 16:10:48;;;;;;;;;;;;;;;;;;5049427;28;19932;-67
2024/01/12 16:13:15;;;;;;;;;;;;;;;;;;5050018;28;19933;-67
2024/01/12 16:15:42;;;;;;;;;;;;;;;;;;5051127;28;19948;-68
2024/01/12 16:18:09;;;;;;;;;;;;;;;;;;5048969;28;19936;-68
2024/01/12 16:20:36;;;;;;;;;;;;;;;;;;5039366;28;19979;-68
2024/01/12 16:23:04;;;;;;;;;;;;;;;;;;5049676;28;19986;-68
2024/01/12 16:25:31;;;;;;;;;;;;;;;;;;5047025;28;19986;-67
2024/01/12 16:27:58;;;;;;;;;;;;;;;;;;5048979;28;19924;-67
2024/01/12 16:30:25;;;;;;;;;;;;;;;;;;5051625;28;19979;-68
2024/01/12 16:32:52;;;;;;;;;;;;;;;;;;5050271;28;19987;-68
2024/01/12 16:35:19;;;;;;;;;;;;;;;;;;5052387;28;19975;-68
2024/01/12 16:37:46;;;;;;;;;;;;;;;;;;5049652;28;19925;-68
2024/01/12 16:40:13;;;;;;;;;;;;;;;;;;5054017;28;19924;-69
2024/01/12 16:42:40;;;;;;;;;;;;;;;;;;5044504;28;19925;-68
2024/01/12 16:45:08;;;;;;;;;;;;;;;;;;5050126;28;19925;-67